createdAt,value
2017-11-06T20:05:01.549Z,21.2
2017-11-06T20:05:13.572Z,21.3
2017-11-06T20:05:25.053Z,21.2
2017-11-06T20:05:40.720Z,21.3
2017-11-06T20:05:53.001Z,21.2
2017-11-06T20:06:04.576Z,21.3
2017-11-06T20:06:16.045Z,21.4
2017-11-06T20:06:27.597Z,21.4
2017-11-06T20:06:39.243Z,21.4
2017-11-06T20:06:50.785Z,21.4
2017-11-06T20:07:02.293Z,21.4
2017-11-06T20:07:18.772Z,21.4
2017-11-06T20:07:31.783Z,21.4
2017-11-06T20:07:43.307Z,21.4
2017-11-06T20:07:54.888Z,21.4
2017-11-06T20:08:06.437Z,21.4
2017-11-06T20:08:23.685Z,21.5
2017-11-06T20:08:39.916Z,21.5
2017-11-06T20:08:52.259Z,21.5
2017-11-06T20:09:03.797Z,21.5
2017-11-06T20:09:15.330Z,21.5
2017-11-06T20:09:26.928Z,21.5
2017-11-06T20:09:42.481Z,21.5
2017-11-06T20:09:54.812Z,21.5
2017-11-06T20:10:06.384Z,21.5
2017-11-06T20:10:21.972Z,21.6
2017-11-06T20:10:34.258Z,21.6
2017-11-06T20:10:46.567Z,21.6
2017-11-06T20:10:58.961Z,21.6
2017-11-06T20:11:10.500Z,21.6
2017-11-06T20:11:22.056Z,21.7
2017-11-06T20:11:33.575Z,21.6
2017-11-06T20:11:45.153Z,21.6
2017-11-06T20:11:58.358Z,21.7
2017-11-06T20:12:09.882Z,21.6
2017-11-06T20:12:25.411Z,21.6
2017-11-06T20:12:37.785Z,21.6
2017-11-06T20:12:53.283Z,21.6
2017-11-06T20:13:05.683Z,21.7
2017-11-06T20:13:17.202Z,21.6
2017-11-06T20:13:31.917Z,21.6
2017-11-06T20:13:45.125Z,21.7
2017-11-06T20:13:56.677Z,21.7
2017-11-06T20:14:09.783Z,21.8
2017-11-06T20:14:22.941Z,21.7
2017-11-06T20:14:36.075Z,21.7
2017-11-06T20:14:47.689Z,21.7
2017-11-06T20:15:03.223Z,21.8
2017-11-06T20:15:19.553Z,21.8
2017-11-06T20:15:32.687Z,21.8
2017-11-06T20:15:44.998Z,21.8
2017-11-06T20:15:57.070Z,21.7
2017-11-06T20:16:09.728Z,21.7
2017-11-06T20:16:22.859Z,21.8
2017-11-06T20:16:36.012Z,21.8
2017-11-06T20:16:47.555Z,21.8
2017-11-06T20:16:59.176Z,21.8
2017-11-06T20:17:10.684Z,21.8
2017-11-06T20:17:22.240Z,21.9
2017-11-06T20:17:33.762Z,21.8
2017-11-06T20:17:45.294Z,21.9
2017-11-06T20:17:56.909Z,21.8
2017-11-06T20:18:08.482Z,21.9
2017-11-06T20:18:21.619Z,21.8
2017-11-06T20:18:34.756Z,21.9
2017-11-06T20:18:50.309Z,21.9
2017-11-06T20:19:02.671Z,21.9
2017-11-06T20:19:14.210Z,21.9
2017-11-06T20:19:25.746Z,21.9
2017-11-06T20:19:41.424Z,21.9
2017-11-06T20:19:53.619Z,21.9
2017-11-06T20:20:05.206Z,21.9
2017-11-06T20:20:18.343Z,21.9
2017-11-06T20:20:29.949Z,21.8
2017-11-06T20:20:41.476Z,21.9
2017-11-06T20:20:53.004Z,21.9
2017-11-06T20:21:06.216Z,21.9
2017-11-06T20:21:17.722Z,21.9
2017-11-06T20:21:29.276Z,22
2017-11-06T20:21:46.592Z,22
2017-11-06T20:21:58.757Z,22.1
2017-11-06T20:22:14.970Z,22
2017-11-06T20:22:30.690Z,22
2017-11-06T20:22:43.055Z,22
2017-11-06T20:22:58.640Z,22
2017-11-06T20:23:10.911Z,22.1
2017-11-06T20:23:22.506Z,22
2017-11-06T20:23:34.022Z,22
2017-11-06T20:23:45.548Z,22.1
2017-11-06T20:24:07.100Z,22.1
2017-11-06T20:24:19.883Z,22.1
2017-11-06T20:24:31.466Z,22
2017-11-06T20:24:43.002Z,22
2017-11-06T20:24:55.498Z,22.1
2017-11-06T20:25:11.668Z,22.1
2017-11-06T20:25:25.075Z,22.1
2017-11-06T20:25:37.162Z,22.1
2017-11-06T20:25:48.688Z,22
2017-11-06T20:26:04.296Z,22
2017-11-06T20:26:16.574Z,22.1
2017-11-06T20:26:28.679Z,22.1
2017-11-06T20:26:45.372Z,22.1
2017-11-06T20:26:57.602Z,22
2017-11-06T20:27:09.270Z,22.1
2017-11-06T20:27:26.309Z,22
2017-11-06T20:27:40.323Z,22.1
2017-11-06T20:27:51.823Z,22.1
2017-11-06T20:28:03.376Z,22.2
2017-11-06T20:28:14.951Z,22.1
2017-11-06T20:28:26.427Z,22.2
2017-11-06T20:28:43.062Z,22.2
2017-11-06T20:28:59.948Z,22.2
2017-11-06T20:29:12.331Z,22.2
2017-11-06T20:33:45.471Z,22.3
2017-11-06T20:33:57.947Z,22.3
2017-11-06T20:34:10.942Z,22.3
2017-11-06T20:34:22.514Z,22.4
2017-11-06T20:34:38.073Z,22.3
2017-11-06T20:34:54.434Z,22.4
2017-11-06T20:35:10.863Z,22.4
2017-11-06T20:35:27.152Z,22.5
2017-11-06T20:35:39.516Z,22.4
2017-11-06T20:35:51.027Z,22.4
2017-11-06T20:36:02.604Z,22.4
2017-11-06T20:36:18.147Z,22.4
2017-11-06T20:36:30.500Z,22.4
2017-11-06T20:36:42.121Z,22.4
2017-11-06T20:36:55.209Z,22.4
2017-11-06T20:37:12.395Z,22.5
2017-11-06T20:37:24.736Z,22.5
2017-11-06T20:37:40.251Z,22.4
2017-11-06T20:37:52.584Z,22.4
2017-11-06T20:38:05.739Z,22.4
2017-11-06T20:38:17.318Z,22.4
2017-11-06T20:38:28.908Z,22.4
2017-11-06T20:38:42.014Z,22.4
2017-11-06T20:38:53.566Z,22.4
2017-11-06T20:39:09.117Z,22.4
2017-11-06T20:39:25.407Z,22.4
2017-11-06T20:39:39.419Z,22.4
2017-11-06T20:39:50.941Z,22.4
2017-11-06T20:40:03.022Z,22.4
2017-11-06T20:40:15.648Z,22.4
2017-11-06T20:40:27.208Z,22.5
2017-11-06T20:40:38.799Z,22.4
2017-11-06T20:40:51.322Z,22.3
2017-11-06T20:41:03.459Z,22.5
2017-11-06T20:41:18.985Z,22.4
2017-11-06T20:41:31.334Z,22.4
2017-11-06T20:41:42.940Z,22.4
2017-11-06T20:54:56.878Z,22.3
2017-11-06T20:55:08.414Z,22.3
2017-11-06T20:55:21.592Z,22.3
2017-11-06T20:55:33.146Z,22.3
2017-11-06T20:55:44.673Z,22.3
2017-11-06T20:55:56.262Z,22.3
2017-11-06T20:56:07.765Z,22.3
2017-11-06T20:56:23.332Z,22.3
2017-11-06T20:56:39.637Z,22.3
2017-11-06T20:56:55.986Z,22.3
2017-11-06T20:57:08.356Z,22.2
2017-11-06T20:57:23.878Z,22.3
2017-11-06T20:57:40.271Z,22.2
2017-11-06T20:57:52.654Z,22.3
2017-11-06T20:58:04.100Z,22.2
2017-11-06T20:58:15.696Z,22.3
2017-11-06T20:58:27.303Z,22.3
2017-11-06T20:58:44.396Z,22.3
2017-11-06T20:58:56.723Z,22.3
2017-11-06T20:59:08.430Z,22.4
2017-11-06T20:59:21.487Z,22.4
2017-11-06T20:59:33.037Z,22.4
2017-11-06T20:59:44.615Z,22.4
2017-11-06T21:00:00.160Z,22.5
2017-11-06T21:00:12.544Z,22.3
2017-11-06T21:00:24.048Z,22.4
2017-11-06T21:00:35.580Z,22.4
2017-11-06T21:00:47.128Z,22.4
2017-11-06T21:00:58.684Z,22.4
2017-11-06T21:01:10.251Z,22.4
2017-11-06T21:01:21.818Z,22.4
2017-11-06T21:01:33.407Z,22.4
2017-11-06T21:01:48.896Z,22.4
2017-11-06T21:02:01.268Z,22.4
2017-11-06T21:02:14.398Z,22.4
2017-11-06T21:02:29.987Z,22.4
2017-11-06T21:02:42.324Z,22.4
2017-11-06T21:02:53.890Z,22.4
2017-11-06T21:03:07.016Z,22.5
2017-11-06T21:03:18.624Z,22.5
2017-11-06T21:03:30.121Z,22.4
2017-11-06T21:03:41.683Z,22.5
2017-11-06T21:03:53.208Z,22.5
2017-11-06T21:04:04.821Z,22.4
2017-11-06T21:04:16.348Z,22.5
2017-11-06T21:04:28.027Z,22.5
2017-11-06T21:04:39.482Z,22.5
2017-11-06T21:04:55.038Z,22.4
2017-11-06T21:05:11.321Z,22.5
2017-11-06T21:05:27.661Z,22.6
2017-11-06T21:05:44.080Z,22.5
2017-11-06T21:05:56.455Z,22.5
2017-11-06T21:06:11.970Z,22.4
2017-11-06T21:06:24.308Z,22.5
2017-11-06T21:06:35.866Z,22.5
2017-11-06T21:06:47.393Z,22.4
2017-11-06T21:07:02.914Z,22.4
2017-11-06T21:07:15.290Z,22.5
2017-11-06T21:07:26.865Z,22.5
2017-11-06T21:07:38.394Z,22.4
2017-11-06T21:07:49.957Z,22.4
2017-11-06T21:08:01.643Z,22.5
2017-11-06T21:08:13.083Z,22.5
2017-11-06T21:08:28.570Z,22.5
2017-11-06T21:08:54.887Z,22.6
2017-11-06T21:09:06.901Z,22.6
2017-11-06T21:09:18.430Z,22.6
2017-11-06T21:09:33.978Z,22.5
2017-11-06T21:09:46.346Z,22.5
2017-11-06T21:10:01.935Z,22.6
2017-11-06T21:10:14.209Z,22.5
2017-11-06T21:10:25.773Z,22.6
2017-11-06T21:10:37.351Z,22.5
2017-11-06T21:10:48.954Z,22.5
2017-11-06T21:11:03.661Z,22.6
2017-11-06T21:11:15.217Z,22.5
2017-11-06T21:11:26.734Z,22.5
2017-11-06T21:11:38.875Z,22.6
2017-11-06T21:11:55.485Z,22.5
2017-11-06T21:12:07.778Z,22.5
2017-11-06T21:12:19.436Z,22.5
2017-11-06T21:12:30.936Z,22.5
2017-11-06T21:12:46.455Z,22.5
2017-11-06T21:13:02.873Z,22.5
2017-11-06T21:13:15.201Z,22.6
2017-11-06T21:13:26.715Z,22.6
2017-11-06T21:13:38.318Z,22.5
2017-11-06T21:13:53.880Z,22.4
2017-11-06T21:14:06.197Z,22.5
2017-11-06T21:14:17.743Z,22.5
2017-11-06T21:14:33.490Z,22.6
2017-11-06T21:14:51.305Z,22.5
2017-11-06T21:15:03.597Z,22.4
2017-11-06T21:15:16.717Z,22.5
2017-11-06T21:15:32.269Z,22.5
2017-11-06T21:15:58.189Z,22.5
2017-11-06T21:16:10.604Z,22.5
2017-11-06T21:16:22.110Z,22.5
2017-11-06T21:16:33.743Z,22.5
2017-11-06T21:16:45.257Z,22.4
2017-11-06T21:16:56.791Z,22.5
2017-11-06T21:17:08.338Z,22.5
2017-11-06T21:17:19.861Z,22.5
2017-11-06T21:17:31.436Z,22.5
2017-11-06T21:17:47.000Z,22.6
2017-11-06T21:18:00.367Z,22.6
2017-11-06T21:18:12.509Z,22.7
2017-11-06T21:18:28.024Z,22.7
2017-11-06T21:18:40.394Z,22.7
2017-11-06T21:18:52.003Z,22.7
2017-11-06T21:19:07.473Z,22.6
2017-11-06T21:19:19.812Z,22.8
2017-11-06T21:19:31.407Z,22.6
2017-11-06T21:19:46.957Z,22.7
2017-11-06T21:19:59.271Z,22.8
2017-11-06T21:20:10.833Z,22.7
2017-11-06T21:20:22.387Z,22.8
2017-11-06T21:20:33.954Z,22.6
2017-11-06T21:20:45.505Z,22.7
2017-11-06T21:20:57.093Z,22.7
2017-11-06T21:21:12.597Z,22.7
2017-11-06T21:21:28.983Z,22.7
2017-11-06T21:21:41.351Z,22.7
2017-11-06T21:21:52.899Z,22.7
2017-11-06T21:22:04.977Z,22.7
2017-11-06T21:22:17.614Z,22.7
2017-11-06T21:22:33.147Z,22.6
2017-11-06T21:22:49.442Z,22.7
2017-11-06T21:23:01.784Z,22.7
2017-11-06T21:23:13.421Z,22.7
2017-11-06T21:23:24.945Z,22.6
2017-11-06T21:23:36.450Z,22.7
2017-11-06T21:23:48.075Z,22.7
2017-11-06T21:23:59.567Z,22.7
2017-11-06T21:24:11.132Z,22.6
2017-11-06T21:24:26.706Z,22.7
2017-11-06T21:24:39.025Z,22.7
2017-11-06T21:24:56.200Z,22.6
2017-11-06T21:25:12.539Z,22.6
2017-11-06T21:25:24.943Z,22.7
2017-11-06T21:25:36.470Z,22.7
2017-11-06T21:25:48.015Z,22.7
2017-11-06T21:26:03.630Z,22.7
2017-11-06T21:26:19.908Z,22.7
2017-11-06T21:26:32.271Z,22.7
2017-11-06T21:26:48.062Z,22.7
2017-11-06T21:27:00.216Z,22.7
2017-11-06T21:27:11.772Z,22.7
2017-11-06T21:27:23.331Z,22.7
2017-11-06T21:27:34.830Z,22.7
2017-11-06T21:27:46.382Z,22.7
2017-11-06T21:27:58.506Z,22.7
2017-11-06T21:28:11.095Z,22.7
2017-11-06T21:28:23.672Z,22.7
2017-11-06T21:28:35.871Z,22.7
2017-11-06T21:28:47.390Z,22.7
2017-11-06T21:28:58.948Z,22.7
2017-11-06T21:29:14.502Z,22.6
2017-11-06T21:29:30.857Z,22.7
2017-11-06T21:29:47.206Z,22.7
2017-11-06T21:29:59.512Z,22.7
2017-11-06T21:30:11.086Z,22.7
2017-11-06T21:30:22.617Z,22.6
2017-11-06T21:30:34.171Z,22.7
2017-11-06T21:30:45.656Z,22.5
2017-11-06T21:30:57.229Z,22.7
2017-11-06T21:31:08.836Z,22.6
2017-11-06T21:31:20.362Z,22.7
2017-11-06T21:31:31.893Z,22.5
2017-11-06T21:31:47.506Z,22.6
2017-11-06T21:32:03.801Z,22.6
2017-11-06T21:32:20.209Z,22.5
2017-11-06T21:32:44.519Z,22.6
2017-11-06T21:32:56.916Z,22.7
2017-11-06T21:33:08.415Z,22.7
2017-11-06T21:33:19.987Z,22.7
2017-11-06T21:33:31.507Z,22.7
2017-11-06T21:33:43.102Z,22.7
2017-11-06T21:33:54.637Z,22.7
2017-11-06T21:34:06.217Z,22.7
2017-11-06T21:34:17.760Z,22.6
2017-11-06T21:34:29.299Z,22.6
2017-11-06T21:34:41.874Z,22.6
2017-11-06T21:34:54.032Z,22.7
2017-11-06T21:35:05.529Z,22.6
2017-11-06T21:35:21.148Z,22.5
2017-11-06T21:35:33.478Z,22.6
2017-11-06T21:35:44.966Z,22.6
2017-11-06T21:35:56.551Z,22.6
2017-11-06T21:36:08.120Z,22.6
2017-11-06T21:36:23.699Z,22.6
2017-11-06T21:36:36.010Z,22.6
2017-11-06T21:36:47.563Z,22.5
2017-11-06T21:36:59.162Z,22.6
